Bighorn, Montana
Current Conditions -  °F | °C
As of 7:53 PM on Tuesday 25 Nov 2014 (Local Time) from KBIL Reporting Station
Overcast Overcast  
Wind Chill: 25°   Ceiling: 8000
Heat Index: 34°   Visibility: 10mi
Dew Point: 20°   Wind: 14mph
Humidity: 56%   Direction: 290°WNW
Pressure: 30.12"   Gusts: NA
Location:  46.16°N, 107.45°W
Report Text: KBIL 260253Z 29012KT 10SM OVC080 01/M07 A3012 RMK AO2 SLP218 T00111067 51019 $
Loading
Personal Weather Stations






























Interactive Weather Map New forecast layout! Learn more

10-Day Weather Forecast

Advertisements
Track Severe Weather on mobile